Teno — A8VP7 — position and weather

sailwx.info

Track history (hours):
 
Tides and Currents Weather Stations Pressure Air Temp Water Temp Dewpoint Dewpoint Depression Visibility Wind Speed Wind Dir Waves Ship Positions

Teno

Last reported at 2018-Feb-09 07:30 UTC. Time now 2018-Feb-21 03:53 UTC.
Position N 36°28' E 014°29'.
Warning: this ship's position is 11 days out of date.

Length 299 m; draft 12.7 m.

Type: Ship (hazmat cat A). MMSI: 636014646.

Date/timePositionNaut miles runAvg speedWind from/ knotsBaromVisibWave heightAir tempDewpointWater temp
2018-Feb-09 07:30N 36°28' E 014°29'75816.5
2018-Feb-07 09:30N 36°27' W 001°13'1020.0
2018-Feb-07 09:00N 36°25' W 001°26'18320.4
2018-Feb-07 00:03N 36°02' W 005°10'222.4
2018-Feb-06 23:59N 36°01' W 005°12'1022.0
2018-Feb-06 23:30N 35°58' W 005°24'7 0.3
2018-Feb-05 23:42N 35°57' W 005°33'6 8.6
2018-Feb-05 23:00N 35°59' W 005°26'5 9.6
2018-Feb-05 22:30N 36°00' W 005°20'510.2
2018-Feb-05 22:00N 36°02' W 005°14'611.7
2018-Feb-05 21:30N 36°02' W 005°07'4 0.2
2018-Feb-05 02:48N 35°58' W 005°08'1 1.3
2018-Feb-05 02:25N 35°58' W 005°08'1 1.5
2018-Feb-05 01:59N 35°57' W 005°09'1 1.5
2018-Feb-05 01:25N 35°56' W 005°09'0 1.1
2018-Feb-05 00:59N 35°56' W 005°09'0 0.9
2018-Feb-05 00:27N 35°55' W 005°09'0 1.0
2018-Feb-04 23:59N 35°55' W 005°09'1 0.4
2018-Feb-04 22:31N 35°54' W 005°09'0 0.1
2018-Feb-04 22:22N 35°54' W 005°09'0 0.1
2018-Feb-04 21:44N 35°54' W 005°09'0 0.4
2018-Feb-04 21:30N 35°54' W 005°09'0 0.5
2018-Feb-04 20:58N 35°54' W 005°09'7 6.9
2018-Feb-04 20:01N 35°57' W 005°17'713.9
2018-Feb-04 19:31N 35°57' W 005°26'24610.9
2018-Feb-03 20:58N 37°57' W 009°53'612.7
2018-Feb-03 20:30N 38°03' W 009°55'712.7
2018-Feb-03 19:59N 38°09' W 009°57'1912.6
2018-Feb-03 18:30N 38°28' W 010°02'712.6
2018-Feb-03 17:59N 38°34' W 010°04'612.8
2018-Feb-03 17:30N 38°40' W 010°05'612.4
2018-Feb-03 17:00N 38°46' W 010°06'1212.2
2018-Feb-03 16:00N 38°58' W 010°07'611.7
2018-Feb-03 15:30N 39°04' W 010°08'612.0
2018-Feb-03 15:00N 39°10' W 010°08'612.3
2018-Feb-03 14:30N 39°16' W 010°08'  
2018-Feb-01 09:58N 47°51' W 005°44'9 9.5
2018-Feb-01 08:58N 48°00' W 005°44'14210.4
2018-Jan-31 19:21N 49°50' W 003°27'513.8
2018-Jan-31 18:59N 49°51' W 003°19'714.0
2018-Jan-31 18:30N 49°55' W 003°10'714.4
2018-Jan-31 18:00N 49°58' W 002°60'714.2
2018-Jan-31 17:30N 50°00' W 002°49'714.8
2018-Jan-31 17:00N 50°02' W 002°38'815.5
2018-Jan-31 16:30N 50°04' W 002°27'1116.8
2018-Jan-31 15:50N 50°07' W 002°10'618.0
2018-Jan-31 15:30N 50°09' W 002°01'918.7
2018-Jan-31 15:00N 50°12' W 001°47'1019.1
2018-Jan-31 14:30N 50°15' W 001°33'4418.7
2018-Jan-31 12:08N 50°26' W 000°26'217.0
2018-Jan-31 12:00N 50°27' W 000°22'816.4
2018-Jan-31 11:30N 50°30' W 000°11'815.5
2018-Jan-31 11:00N 50°32' E 000°01'715.0
2018-Jan-31 10:30N 50°33' E 000°13'714.3
2018-Jan-31 10:01N 50°35' E 000°24'713.7
2018-Jan-31 09:30N 50°37' E 000°34'713.4
2018-Jan-31 09:00N 50°41' E 000°42'612.9
2018-Jan-31 08:30N 50°45' E 000°51'713.3
2018-Jan-31 08:00N 50°48' E 000°59'814.4
2018-Jan-31 07:29N 50°53' E 001°08'815.7
2018-Jan-31 07:00N 50°59' E 001°17'816.6
2018-Jan-31 06:30N 51°04' E 001°27'816.5
2018-Jan-31 06:01N 51°09' E 001°37'816.0
2018-Jan-31 05:31N 51°14' E 001°46'815.5
2018-Jan-31 05:01N 51°21' E 001°51'714.7
2018-Jan-31 04:30N 51°29' E 001°54'714.8
2018-Jan-31 04:00N 51°35' E 001°50'714.0
2018-Jan-31 03:30N 51°42' E 001°46'713.6
2018-Jan-31 03:00N 51°49' E 001°44'510.8
2018-Jan-31 02:30N 51°51' E 001°36'816.9
2018-Jan-31 02:01N 51°44' E 001°29'1020.0
2018-Jan-31 01:30N 51°36' E 001°18'918.3
2018-Jan-31 01:01N 51°32' E 001°06'1716.9
2018-Jan-31 00:01N 51°30' E 000°39'510.7
2018-Jan-30 23:30N 51°30' E 000°30'0 1.0
2018-Jan-30 23:00N 51°30' E 000°30'0 0.0
2018-Jan-30 22:30N 51°30' E 000°30'0 0.0
2018-Jan-30 21:30N 51°30' E 000°30'0 0.0
2018-Jan-30 21:00N 51°30' E 000°30'0 0.0
2018-Jan-30 20:30N 51°30' E 000°30'0 0.0
2018-Jan-30 20:00N 51°30' E 000°30'0 0.0
2018-Jan-30 19:30N 51°30' E 000°30'0 0.0
2018-Jan-30 19:00N 51°30' E 000°30'0 0.0
2018-Jan-30 18:30N 51°30' E 000°30'0 0.0
2018-Jan-30 18:00N 51°30' E 000°30'0 0.0
2018-Jan-30 17:30N 51°30' E 000°30'0 0.0
2018-Jan-30 17:00N 51°30' E 000°30'0 0.0
2018-Jan-30 16:30N 51°30' E 000°30'0 0.0
2018-Jan-30 16:00N 51°30' E 000°30'0 0.0
2018-Jan-30 15:30N 51°30' E 000°30'0 0.0
2018-Jan-30 15:00N 51°30' E 000°30'0 0.0
2018-Jan-30 14:30N 51°30' E 000°30'0 0.0
2018-Jan-30 13:30N 51°30' E 000°30'0 0.0
2018-Jan-30 13:00N 51°30' E 000°30'0 0.0
2018-Jan-30 12:30N 51°30' E 000°30'0 0.0
2018-Jan-30 12:00N 51°30' E 000°30'0 0.0
2018-Jan-30 11:30N 51°30' E 000°30'0 0.0
2018-Jan-30 10:30N 51°30' E 000°30'0 0.0
2018-Jan-30 09:31N 51°30' E 000°30'0 0.0
2018-Jan-30 09:00N 51°30' E 000°30'0 0.0
2018-Jan-30 08:30N 51°30' E 000°30'0 0.0
2018-Jan-30 08:00N 51°30' E 000°30'0 0.0
2018-Jan-30 07:30N 51°30' E 000°30'  
Track history (hours):
 
Tides and Currents Weather Stations Pressure Air Temp Water Temp Dewpoint Dewpoint Depression Visibility Wind Speed Wind Dir Waves Ship Positions

Teno

Last reported at 2018-Feb-09 07:30 UTC. Time now 2018-Feb-21 03:53 UTC.
Position N 36°28' E 014°29'.
Warning: this ship's position is 11 days out of date.

Length 299 m; draft 12.7 m.

Type: Ship (hazmat cat A). MMSI: 636014646.

Date/timePositionNaut miles runAvg speedWind from/ knotsBaromVisibWave heightAir tempDewpointWater temp
2018-Feb-09 07:30N 36°28' E 014°29'75816.5
2018-Feb-07 09:30N 36°27' W 001°13'1020.0
2018-Feb-07 09:00N 36°25' W 001°26'18320.4
2018-Feb-07 00:03N 36°02' W 005°10'222.4
2018-Feb-06 23:59N 36°01' W 005°12'1022.0
2018-Feb-06 23:30N 35°58' W 005°24'7 0.3
2018-Feb-05 23:42N 35°57' W 005°33'6 8.6
2018-Feb-05 23:00N 35°59' W 005°26'5 9.6
2018-Feb-05 22:30N 36°00' W 005°20'510.2
2018-Feb-05 22:00N 36°02' W 005°14'611.7
2018-Feb-05 21:30N 36°02' W 005°07'4 0.2
2018-Feb-05 02:48N 35°58' W 005°08'1 1.3
2018-Feb-05 02:25N 35°58' W 005°08'1 1.5
2018-Feb-05 01:59N 35°57' W 005°09'1 1.5
2018-Feb-05 01:25N 35°56' W 005°09'0 1.1
2018-Feb-05 00:59N 35°56' W 005°09'0 0.9
2018-Feb-05 00:27N 35°55' W 005°09'0 1.0
2018-Feb-04 23:59N 35°55' W 005°09'1 0.4
2018-Feb-04 22:31N 35°54' W 005°09'0 0.1
2018-Feb-04 22:22N 35°54' W 005°09'0 0.1
2018-Feb-04 21:44N 35°54' W 005°09'0 0.4
2018-Feb-04 21:30N 35°54' W 005°09'0 0.5
2018-Feb-04 20:58N 35°54' W 005°09'7 6.9
2018-Feb-04 20:01N 35°57' W 005°17'713.9
2018-Feb-04 19:31N 35°57' W 005°26'24610.9
2018-Feb-03 20:58N 37°57' W 009°53'612.7
2018-Feb-03 20:30N 38°03' W 009°55'712.7
2018-Feb-03 19:59N 38°09' W 009°57'1912.6
2018-Feb-03 18:30N 38°28' W 010°02'712.6
2018-Feb-03 17:59N 38°34' W 010°04'612.8
2018-Feb-03 17:30N 38°40' W 010°05'612.4
2018-Feb-03 17:00N 38°46' W 010°06'1212.2
2018-Feb-03 16:00N 38°58' W 010°07'611.7
2018-Feb-03 15:30N 39°04' W 010°08'612.0
2018-Feb-03 15:00N 39°10' W 010°08'612.3
2018-Feb-03 14:30N 39°16' W 010°08'  
2018-Feb-01 09:58N 47°51' W 005°44'9 9.5
2018-Feb-01 08:58N 48°00' W 005°44'14210.4
2018-Jan-31 19:21N 49°50' W 003°27'513.8
2018-Jan-31 18:59N 49°51' W 003°19'714.0
2018-Jan-31 18:30N 49°55' W 003°10'714.4
2018-Jan-31 18:00N 49°58' W 002°60'714.2
2018-Jan-31 17:30N 50°00' W 002°49'714.8
2018-Jan-31 17:00N 50°02' W 002°38'815.5
2018-Jan-31 16:30N 50°04' W 002°27'1116.8
2018-Jan-31 15:50N 50°07' W 002°10'618.0
2018-Jan-31 15:30N 50°09' W 002°01'918.7
2018-Jan-31 15:00N 50°12' W 001°47'1019.1
2018-Jan-31 14:30N 50°15' W 001°33'4418.7
2018-Jan-31 12:08N 50°26' W 000°26'217.0
2018-Jan-31 12:00N 50°27' W 000°22'816.4
2018-Jan-31 11:30N 50°30' W 000°11'815.5
2018-Jan-31 11:00N 50°32' E 000°01'715.0
2018-Jan-31 10:30N 50°33' E 000°13'714.3
2018-Jan-31 10:01N 50°35' E 000°24'713.7
2018-Jan-31 09:30N 50°37' E 000°34'713.4
2018-Jan-31 09:00N 50°41' E 000°42'612.9
2018-Jan-31 08:30N 50°45' E 000°51'713.3
2018-Jan-31 08:00N 50°48' E 000°59'814.4
2018-Jan-31 07:29N 50°53' E 001°08'815.7
2018-Jan-31 07:00N 50°59' E 001°17'816.6
2018-Jan-31 06:30N 51°04' E 001°27'816.5
2018-Jan-31 06:01N 51°09' E 001°37'816.0
2018-Jan-31 05:31N 51°14' E 001°46'815.5
2018-Jan-31 05:01N 51°21' E 001°51'714.7
2018-Jan-31 04:30N 51°29' E 001°54'714.8
2018-Jan-31 04:00N 51°35' E 001°50'714.0
2018-Jan-31 03:30N 51°42' E 001°46'713.6
2018-Jan-31 03:00N 51°49' E 001°44'510.8
2018-Jan-31 02:30N 51°51' E 001°36'816.9
2018-Jan-31 02:01N 51°44' E 001°29'1020.0
2018-Jan-31 01:30N 51°36' E 001°18'918.3
2018-Jan-31 01:01N 51°32' E 001°06'1716.9
2018-Jan-31 00:01N 51°30' E 000°39'510.7
2018-Jan-30 23:30N 51°30' E 000°30'0 1.0
2018-Jan-30 23:00N 51°30' E 000°30'0 0.0
2018-Jan-30 22:30N 51°30' E 000°30'0 0.0
2018-Jan-30 21:30N 51°30' E 000°30'0 0.0
2018-Jan-30 21:00N 51°30' E 000°30'0 0.0
2018-Jan-30 20:30N 51°30' E 000°30'0 0.0
2018-Jan-30 20:00N 51°30' E 000°30'0 0.0
2018-Jan-30 19:30N 51°30' E 000°30'0 0.0
2018-Jan-30 19:00N 51°30' E 000°30'0 0.0
2018-Jan-30 18:30N 51°30' E 000°30'0 0.0
2018-Jan-30 18:00N 51°30' E 000°30'0 0.0
2018-Jan-30 17:30N 51°30' E 000°30'0 0.0
2018-Jan-30 17:00N 51°30' E 000°30'0 0.0
2018-Jan-30 16:30N 51°30' E 000°30'0 0.0
2018-Jan-30 16:00N 51°30' E 000°30'0 0.0
2018-Jan-30 15:30N 51°30' E 000°30'0 0.0
2018-Jan-30 15:00N 51°30' E 000°30'0 0.0
2018-Jan-30 14:30N 51°30' E 000°30'0 0.0
2018-Jan-30 13:30N 51°30' E 000°30'0 0.0
2018-Jan-30 13:00N 51°30' E 000°30'0 0.0
2018-Jan-30 12:30N 51°30' E 000°30'0 0.0
2018-Jan-30 12:00N 51°30' E 000°30'0 0.0
2018-Jan-30 11:30N 51°30' E 000°30'0 0.0
2018-Jan-30 10:30N 51°30' E 000°30'0 0.0
2018-Jan-30 09:31N 51°30' E 000°30'0 0.0
2018-Jan-30 09:00N 51°30' E 000°30'0 0.0
2018-Jan-30 08:30N 51°30' E 000°30'0 0.0
2018-Jan-30 08:00N 51°30' E 000°30'0 0.0
2018-Jan-30 07:30N 51°30' E 000°30'  

Dump ship's entire track history